sensor_id;sensor_type;location;lat;lon;timestamp;P1;durP1;ratioP1;P2;durP2;ratioP2
60588;SDS011;46421;48.610;9.334;2023-08-21T00:02:14;8.53;;;5.07;;
60588;SDS011;46421;48.610;9.334;2023-08-21T00:04:39;9.47;;;4.90;;
60588;SDS011;46421;48.610;9.334;2023-08-21T00:07:04;9.67;;;5.10;;
60588;SDS011;46421;48.610;9.334;2023-08-21T00:09:31;8.70;;;5.22;;
60588;SDS011;46421;48.610;9.334;2023-08-21T00:11:56;7.87;;;4.50;;
60588;SDS011;46421;48.610;9.334;2023-08-21T00:14:21;7.93;;;4.67;;
60588;SDS011;46421;48.610;9.334;2023-08-21T00:16:47;9.23;;;5.37;;
60588;SDS011;46421;48.610;9.334;2023-08-21T00:19:12;8.67;;;4.87;;
60588;SDS011;46421;48.610;9.334;2023-08-21T00:21:37;10.13;;;6.03;;
60588;SDS011;46421;48.610;9.334;2023-08-21T00:24:02;8.30;;;4.73;;
60588;SDS011;46421;48.610;9.334;2023-08-21T00:26:27;8.93;;;4.83;;
60588;SDS011;46421;48.610;9.334;2023-08-21T00:28:53;9.37;;;5.37;;
60588;SDS011;46421;48.610;9.334;2023-08-21T00:31:18;8.83;;;4.57;;
60588;SDS011;46421;48.610;9.334;2023-08-21T00:33:43;9.87;;;5.27;;
60588;SDS011;46421;48.610;9.334;2023-08-21T00:36:08;10.30;;;6.13;;
60588;SDS011;46421;48.610;9.334;2023-08-21T00:38:34;9.18;;;4.40;;
60588;SDS011;46421;48.610;9.334;2023-08-21T00:40:59;9.52;;;5.75;;
60588;SDS011;46421;48.610;9.334;2023-08-21T00:43:25;8.07;;;4.47;;
60588;SDS011;46421;48.610;9.334;2023-08-21T00:45:50;10.60;;;5.50;;
60588;SDS011;46421;48.610;9.334;2023-08-21T00:48:15;7.27;;;5.00;;
60588;SDS011;46421;48.610;9.334;2023-08-21T00:50:41;8.68;;;4.95;;
60588;SDS011;46421;48.610;9.334;2023-08-21T00:53:06;9.57;;;5.10;;
60588;SDS011;46421;48.610;9.334;2023-08-21T00:55:32;11.43;;;4.90;;
60588;SDS011;46421;48.610;9.334;2023-08-21T00:57:57;10.27;;;4.60;;
60588;SDS011;46421;48.610;9.334;2023-08-21T01:00:23;9.55;;;4.82;;
60588;SDS011;46421;48.610;9.334;2023-08-21T01:02:49;9.35;;;4.82;;
60588;SDS011;46421;48.610;9.334;2023-08-21T01:05:14;8.83;;;5.10;;
60588;SDS011;46421;48.610;9.334;2023-08-21T01:08:00;8.23;;;4.20;;
60588;SDS011;46421;48.610;9.334;2023-08-21T01:10:35;9.18;;;4.30;;
60588;SDS011;46421;48.610;9.334;2023-08-21T01:15:46;7.70;;;4.50;;
60588;SDS011;46421;48.610;9.334;2023-08-21T01:18:14;8.90;;;5.35;;
60588;SDS011;46421;48.610;9.334;2023-08-21T01:20:40;10.00;;;4.82;;
60588;SDS011;46421;48.610;9.334;2023-08-21T01:23:05;8.70;;;4.75;;
60588;SDS011;46421;48.610;9.334;2023-08-21T01:25:31;7.97;;;4.30;;
60588;SDS011;46421;48.610;9.334;2023-08-21T01:27:57;8.20;;;4.80;;
60588;SDS011;46421;48.610;9.334;2023-08-21T01:30:23;8.93;;;5.07;;
60588;SDS011;46421;48.610;9.334;2023-08-21T01:32:50;8.63;;;5.25;;
60588;SDS011;46421;48.610;9.334;2023-08-21T01:35:17;9.35;;;4.82;;
60588;SDS011;46421;48.610;9.334;2023-08-21T01:37:43;9.10;;;5.10;;
60588;SDS011;46421;48.610;9.334;2023-08-21T01:40:09;8.65;;;4.72;;
60588;SDS011;46421;48.610;9.334;2023-08-21T01:42:34;8.95;;;5.07;;
60588;SDS011;46421;48.610;9.334;2023-08-21T01:44:59;9.17;;;4.93;;
60588;SDS011;46421;48.610;9.334;2023-08-21T01:47:24;10.60;;;5.07;;
60588;SDS011;46421;48.610;9.334;2023-08-21T01:49:50;8.10;;;4.57;;
60588;SDS011;46421;48.610;9.334;2023-08-21T01:52:17;7.70;;;4.57;;
60588;SDS011;46421;48.610;9.334;2023-08-21T01:54:42;11.52;;;4.90;;
60588;SDS011;46421;48.610;9.334;2023-08-21T01:57:07;10.32;;;5.18;;
60588;SDS011;46421;48.610;9.334;2023-08-21T01:59:33;7.20;;;4.70;;
60588;SDS011;46421;48.610;9.334;2023-08-21T02:01:58;8.77;;;4.97;;
60588;SDS011;46421;48.610;9.334;2023-08-21T02:04:23;8.97;;;4.23;;
60588;SDS011;46421;48.610;9.334;2023-08-21T02:06:48;10.47;;;4.90;;
60588;SDS011;46421;48.610;9.334;2023-08-21T02:09:13;10.37;;;5.90;;
60588;SDS011;46421;48.610;9.334;2023-08-21T02:11:39;9.53;;;5.20;;
60588;SDS011;46421;48.610;9.334;2023-08-21T02:14:04;9.93;;;4.90;;
60588;SDS011;46421;48.610;9.334;2023-08-21T02:16:29;7.53;;;4.57;;
60588;SDS011;46421;48.610;9.334;2023-08-21T02:18:54;9.13;;;5.33;;
60588;SDS011;46421;48.610;9.334;2023-08-21T02:21:20;8.65;;;4.93;;
60588;SDS011;46421;48.610;9.334;2023-08-21T02:23:45;9.70;;;4.93;;
60588;SDS011;46421;48.610;9.334;2023-08-21T02:26:10;10.87;;;5.60;;
60588;SDS011;46421;48.610;9.334;2023-08-21T02:28:35;11.73;;;4.83;;
60588;SDS011;46421;48.610;9.334;2023-08-21T02:31:01;11.03;;;5.40;;
60588;SDS011;46421;48.610;9.334;2023-08-21T02:33:26;8.57;;;4.80;;
60588;SDS011;46421;48.610;9.334;2023-08-21T02:35:51;9.10;;;6.07;;
60588;SDS011;46421;48.610;9.334;2023-08-21T02:38:16;8.00;;;5.17;;
60588;SDS011;46421;48.610;9.334;2023-08-21T02:40:42;9.93;;;4.87;;
60588;SDS011;46421;48.610;9.334;2023-08-21T02:43:07;9.67;;;4.87;;
60588;SDS011;46421;48.610;9.334;2023-08-21T02:45:32;11.40;;;5.30;;
60588;SDS011;46421;48.610;9.334;2023-08-21T02:47:57;7.60;;;4.53;;
60588;SDS011;46421;48.610;9.334;2023-08-21T02:50:23;10.50;;;5.07;;
60588;SDS011;46421;48.610;9.334;2023-08-21T02:52:48;9.57;;;6.07;;
60588;SDS011;46421;48.610;9.334;2023-08-21T02:55:13;9.33;;;4.90;;
60588;SDS011;46421;48.610;9.334;2023-08-21T02:57:39;11.50;;;4.70;;
60588;SDS011;46421;48.610;9.334;2023-08-21T03:00:04;10.57;;;5.93;;
60588;SDS011;46421;48.610;9.334;2023-08-21T03:02:30;8.50;;;5.10;;
60588;SDS011;46421;48.610;9.334;2023-08-21T03:04:55;8.87;;;4.80;;
60588;SDS011;46421;48.610;9.334;2023-08-21T03:07:20;9.27;;;4.70;;
60588;SDS011;46421;48.610;9.334;2023-08-21T03:09:46;7.17;;;4.33;;
60588;SDS011;46421;48.610;9.334;2023-08-21T03:12:12;8.15;;;4.53;;
60588;SDS011;46421;48.610;9.334;2023-08-21T03:14:37;7.13;;;4.43;;
60588;SDS011;46421;48.610;9.334;2023-08-21T03:17:02;9.37;;;5.00;;
60588;SDS011;46421;48.610;9.334;2023-08-21T03:19:27;9.63;;;4.63;;
60588;SDS011;46421;48.610;9.334;2023-08-21T03:21:53;9.87;;;4.80;;
60588;SDS011;46421;48.610;9.334;2023-08-21T03:24:18;7.88;;;4.68;;
60588;SDS011;46421;48.610;9.334;2023-08-21T03:26:44;10.07;;;5.27;;
60588;SDS011;46421;48.610;9.334;2023-08-21T03:29:09;9.03;;;5.50;;
60588;SDS011;46421;48.610;9.334;2023-08-21T03:31:34;8.70;;;5.43;;
60588;SDS011;46421;48.610;9.334;2023-08-21T03:33:59;8.27;;;5.13;;
60588;SDS011;46421;48.610;9.334;2023-08-21T03:36:25;7.43;;;5.22;;
60588;SDS011;46421;48.610;9.334;2023-08-21T03:38:59;11.18;;;5.57;;
60588;SDS011;46421;48.610;9.334;2023-08-21T03:41:24;7.97;;;4.80;;
60588;SDS011;46421;48.610;9.334;2023-08-21T03:43:49;8.30;;;4.50;;
60588;SDS011;46421;48.610;9.334;2023-08-21T03:46:14;8.77;;;4.70;;
60588;SDS011;46421;48.610;9.334;2023-08-21T03:48:39;9.87;;;5.13;;
60588;SDS011;46421;48.610;9.334;2023-08-21T03:51:05;8.27;;;4.50;;
60588;SDS011;46421;48.610;9.334;2023-08-21T03:53:30;8.70;;;4.43;;
60588;SDS011;46421;48.610;9.334;2023-08-21T03:55:55;9.23;;;4.70;;
60588;SDS011;46421;48.610;9.334;2023-08-21T03:58:20;10.73;;;4.83;;
60588;SDS011;46421;48.610;9.334;2023-08-21T04:00:45;9.33;;;5.00;;
60588;SDS011;46421;48.610;9.334;2023-08-21T04:03:11;8.47;;;5.07;;
60588;SDS011;46421;48.610;9.334;2023-08-21T04:05:36;9.53;;;5.80;;
60588;SDS011;46421;48.610;9.334;2023-08-21T04:08:02;9.80;;;5.30;;
60588;SDS011;46421;48.610;9.334;2023-08-21T04:10:27;8.13;;;4.97;;
60588;SDS011;46421;48.610;9.334;2023-08-21T04:12:52;8.25;;;5.22;;
60588;SDS011;46421;48.610;9.334;2023-08-21T04:15:18;8.60;;;4.60;;
60588;SDS011;46421;48.610;9.334;2023-08-21T04:17:43;8.63;;;5.00;;
60588;SDS011;46421;48.610;9.334;2023-08-21T04:20:08;9.40;;;4.90;;
60588;SDS011;46421;48.610;9.334;2023-08-21T04:22:33;8.67;;;4.60;;
60588;SDS011;46421;48.610;9.334;2023-08-21T04:24:59;8.57;;;4.87;;
60588;SDS011;46421;48.610;9.334;2023-08-21T04:27:25;9.02;;;4.47;;
60588;SDS011;46421;48.610;9.334;2023-08-21T04:29:50;8.23;;;4.33;;
60588;SDS011;46421;48.610;9.334;2023-08-21T04:32:15;9.43;;;4.67;;
60588;SDS011;46421;48.610;9.334;2023-08-21T04:34:40;8.73;;;5.00;;
60588;SDS011;46421;48.610;9.334;2023-08-21T04:37:05;7.60;;;4.43;;
60588;SDS011;46421;48.610;9.334;2023-08-21T04:39:31;7.07;;;4.43;;
60588;SDS011;46421;48.610;9.334;2023-08-21T04:41:56;9.47;;;5.30;;
60588;SDS011;46421;48.610;9.334;2023-08-21T04:44:21;9.57;;;5.13;;
60588;SDS011;46421;48.610;9.334;2023-08-21T04:46:47;9.60;;;5.15;;
60588;SDS011;46421;48.610;9.334;2023-08-21T04:49:13;7.95;;;4.57;;
60588;SDS011;46421;48.610;9.334;2023-08-21T04:51:38;8.88;;;4.93;;
60588;SDS011;46421;48.610;9.334;2023-08-21T04:54:03;8.83;;;5.77;;
60588;SDS011;46421;48.610;9.334;2023-08-21T04:56:29;8.27;;;4.63;;
60588;SDS011;46421;48.610;9.334;2023-08-21T04:58:54;11.07;;;5.17;;
60588;SDS011;46421;48.610;9.334;2023-08-21T05:01:20;8.85;;;4.90;;
60588;SDS011;46421;48.610;9.334;2023-08-21T05:03:45;9.80;;;5.43;;
60588;SDS011;46421;48.610;9.334;2023-08-21T05:06:10;9.63;;;4.73;;
60588;SDS011;46421;48.610;9.334;2023-08-21T05:08:35;8.90;;;5.60;;
60588;SDS011;46421;48.610;9.334;2023-08-21T05:11:01;12.07;;;4.80;;
60588;SDS011;46421;48.610;9.334;2023-08-21T05:13:26;7.07;;;4.30;;
60588;SDS011;46421;48.610;9.334;2023-08-21T05:15:52;7.40;;;4.57;;
60588;SDS011;46421;48.610;9.334;2023-08-21T05:20:43;11.07;;;5.17;;
60588;SDS011;46421;48.610;9.334;2023-08-21T05:23:09;7.82;;;4.63;;
60588;SDS011;46421;48.610;9.334;2023-08-21T05:25:34;10.43;;;5.47;;
60588;SDS011;46421;48.610;9.334;2023-08-21T05:27:59;8.15;;;4.95;;
60588;SDS011;46421;48.610;9.334;2023-08-21T05:30:25;7.73;;;4.73;;
60588;SDS011;46421;48.610;9.334;2023-08-21T05:32:50;8.70;;;5.40;;
60588;SDS011;46421;48.610;9.334;2023-08-21T05:35:15;11.40;;;5.30;;
60588;SDS011;46421;48.610;9.334;2023-08-21T05:37:40;9.30;;;4.87;;
60588;SDS011;46421;48.610;9.334;2023-08-21T05:40:06;8.63;;;5.00;;
60588;SDS011;46421;48.610;9.334;2023-08-21T05:42:32;8.23;;;5.07;;
60588;SDS011;46421;48.610;9.334;2023-08-21T05:44:58;7.63;;;5.22;;
60588;SDS011;46421;48.610;9.334;2023-08-21T05:47:23;9.03;;;5.07;;
60588;SDS011;46421;48.610;9.334;2023-08-21T05:49:49;8.63;;;4.80;;
60588;SDS011;46421;48.610;9.334;2023-08-21T05:52:15;11.52;;;4.95;;
60588;SDS011;46421;48.610;9.334;2023-08-21T05:54:40;8.47;;;4.90;;
60588;SDS011;46421;48.610;9.334;2023-08-21T05:57:05;9.83;;;5.97;;
60588;SDS011;46421;48.610;9.334;2023-08-21T05:59:31;7.90;;;4.90;;
60588;SDS011;46421;48.610;9.334;2023-08-21T06:01:56;12.48;;;5.90;;
60588;SDS011;46421;48.610;9.334;2023-08-21T06:04:21;10.07;;;6.00;;
60588;SDS011;46421;48.610;9.334;2023-08-21T06:06:47;9.85;;;5.45;;
60588;SDS011;46421;48.610;9.334;2023-08-21T06:09:13;10.53;;;6.00;;
60588;SDS011;46421;48.610;9.334;2023-08-21T06:11:38;9.23;;;5.53;;
60588;SDS011;46421;48.610;9.334;2023-08-21T06:14:04;9.18;;;5.32;;
60588;SDS011;46421;48.610;9.334;2023-08-21T06:16:29;8.60;;;4.63;;
60588;SDS011;46421;48.610;9.334;2023-08-21T06:18:54;10.60;;;5.40;;
60588;SDS011;46421;48.610;9.334;2023-08-21T06:21:19;11.07;;;5.80;;
60588;SDS011;46421;48.610;9.334;2023-08-21T06:23:44;9.13;;;5.07;;
60588;SDS011;46421;48.610;9.334;2023-08-21T06:26:09;7.87;;;4.70;;
60588;SDS011;46421;48.610;9.334;2023-08-21T06:28:35;7.97;;;5.50;;
60588;SDS011;46421;48.610;9.334;2023-08-21T06:31:00;8.50;;;5.45;;
60588;SDS011;46421;48.610;9.334;2023-08-21T06:33:28;10.10;;;5.20;;
60588;SDS011;46421;48.610;9.334;2023-08-21T06:35:53;9.33;;;5.50;;
60588;SDS011;46421;48.610;9.334;2023-08-21T06:38:18;8.67;;;4.47;;
60588;SDS011;46421;48.610;9.334;2023-08-21T06:40:44;9.90;;;5.50;;
60588;SDS011;46421;48.610;9.334;2023-08-21T06:43:10;11.43;;;5.40;;
60588;SDS011;46421;48.610;9.334;2023-08-21T06:45:35;9.17;;;5.80;;
60588;SDS011;46421;48.610;9.334;2023-08-21T06:48:01;7.20;;;5.00;;
60588;SDS011;46421;48.610;9.334;2023-08-21T06:50:27;9.20;;;5.43;;
60588;SDS011;46421;48.610;9.334;2023-08-21T06:52:52;9.47;;;6.03;;
60588;SDS011;46421;48.610;9.334;2023-08-21T06:55:18;8.80;;;5.55;;
60588;SDS011;46421;48.610;9.334;2023-08-21T06:57:43;7.60;;;5.13;;
60588;SDS011;46421;48.610;9.334;2023-08-21T07:00:08;7.53;;;5.63;;
60588;SDS011;46421;48.610;9.334;2023-08-21T07:02:34;9.68;;;5.25;;
60588;SDS011;46421;48.610;9.334;2023-08-21T07:05:00;7.32;;;5.55;;
60588;SDS011;46421;48.610;9.334;2023-08-21T07:07:25;9.63;;;5.93;;
60588;SDS011;46421;48.610;9.334;2023-08-21T07:09:50;7.53;;;5.17;;
60588;SDS011;46421;48.610;9.334;2023-08-21T07:12:16;9.05;;;5.93;;
60588;SDS011;46421;48.610;9.334;2023-08-21T07:17:06;7.80;;;5.00;;
60588;SDS011;46421;48.610;9.334;2023-08-21T07:21:57;7.63;;;5.57;;
60588;SDS011;46421;48.610;9.334;2023-08-21T07:26:47;7.03;;;5.30;;
60588;SDS011;46421;48.610;9.334;2023-08-21T07:31:37;8.18;;;5.57;;
60588;SDS011;46421;48.610;9.334;2023-08-21T07:36:28;7.70;;;5.65;;
60588;SDS011;46421;48.610;9.334;2023-08-21T07:41:18;8.30;;;6.18;;
60588;SDS011;46421;48.610;9.334;2023-08-21T07:43:44;7.40;;;5.93;;
60588;SDS011;46421;48.610;9.334;2023-08-21T07:46:11;8.35;;;5.57;;
60588;SDS011;46421;48.610;9.334;2023-08-21T07:48:43;7.70;;;5.65;;
60588;SDS011;46421;48.610;9.334;2023-08-21T07:51:09;7.80;;;5.80;;
60588;SDS011;46421;48.610;9.334;2023-08-21T07:53:34;8.20;;;5.53;;
60588;SDS011;46421;48.610;9.334;2023-08-21T07:56:00;7.95;;;5.97;;
60588;SDS011;46421;48.610;9.334;2023-08-21T07:58:25;10.43;;;5.80;;
60588;SDS011;46421;48.610;9.334;2023-08-21T08:00:51;10.30;;;6.83;;
60588;SDS011;46421;48.610;9.334;2023-08-21T08:03:16;6.85;;;5.30;;
60588;SDS011;46421;48.610;9.334;2023-08-21T08:05:41;8.77;;;5.70;;
60588;SDS011;46421;48.610;9.334;2023-08-21T08:08:09;9.38;;;6.32;;
60588;SDS011;46421;48.610;9.334;2023-08-21T08:10:38;8.60;;;6.18;;
60588;SDS011;46421;48.610;9.334;2023-08-21T08:13:04;7.95;;;6.07;;
60588;SDS011;46421;48.610;9.334;2023-08-21T08:15:30;9.03;;;5.80;;
60588;SDS011;46421;48.610;9.334;2023-08-21T08:17:55;8.18;;;5.65;;
60588;SDS011;46421;48.610;9.334;2023-08-21T08:20:21;9.80;;;7.17;;
60588;SDS011;46421;48.610;9.334;2023-08-21T08:22:46;7.97;;;5.73;;
60588;SDS011;46421;48.610;9.334;2023-08-21T08:25:11;7.43;;;5.95;;
60588;SDS011;46421;48.610;9.334;2023-08-21T08:27:37;8.07;;;6.10;;
60588;SDS011;46421;48.610;9.334;2023-08-21T08:30:03;7.63;;;5.90;;
60588;SDS011;46421;48.610;9.334;2023-08-21T08:32:28;8.27;;;6.70;;
60588;SDS011;46421;48.610;9.334;2023-08-21T08:34:53;8.90;;;6.27;;
60588;SDS011;46421;48.610;9.334;2023-08-21T08:37:19;7.47;;;6.10;;
60588;SDS011;46421;48.610;9.334;2023-08-21T08:39:47;7.95;;;7.03;;
60588;SDS011;46421;48.610;9.334;2023-08-21T08:42:13;8.63;;;7.28;;
60588;SDS011;46421;48.610;9.334;2023-08-21T08:44:39;9.05;;;6.88;;
60588;SDS011;46421;48.610;9.334;2023-08-21T08:47:06;7.97;;;6.13;;
60588;SDS011;46421;48.610;9.334;2023-08-21T08:49:31;8.27;;;6.65;;
60588;SDS011;46421;48.610;9.334;2023-08-21T08:51:57;8.77;;;6.18;;
60588;SDS011;46421;48.610;9.334;2023-08-21T08:54:23;7.60;;;5.95;;
60588;SDS011;46421;48.610;9.334;2023-08-21T08:56:50;6.65;;;5.65;;
60588;SDS011;46421;48.610;9.334;2023-08-21T08:59:15;7.27;;;5.67;;
60588;SDS011;46421;48.610;9.334;2023-08-21T09:01:41;7.97;;;6.68;;
60588;SDS011;46421;48.610;9.334;2023-08-21T09:04:08;7.95;;;6.38;;
60588;SDS011;46421;48.610;9.334;2023-08-21T09:06:33;8.07;;;6.13;;
60588;SDS011;46421;48.610;9.334;2023-08-21T09:08:59;7.80;;;6.20;;
60588;SDS011;46421;48.610;9.334;2023-08-21T09:11:24;9.10;;;6.57;;
60588;SDS011;46421;48.610;9.334;2023-08-21T09:13:50;10.07;;;6.53;;
60588;SDS011;46421;48.610;9.334;2023-08-21T09:16:16;7.22;;;6.25;;
60588;SDS011;46421;48.610;9.334;2023-08-21T09:18:52;8.25;;;7.07;;
60588;SDS011;46421;48.610;9.334;2023-08-21T09:21:18;8.85;;;7.20;;
60588;SDS011;46421;48.610;9.334;2023-08-21T09:23:43;8.25;;;7.20;;
60588;SDS011;46421;48.610;9.334;2023-08-21T09:26:09;10.13;;;6.68;;
60588;SDS011;46421;48.610;9.334;2023-08-21T09:28:34;7.60;;;6.27;;
60588;SDS011;46421;48.610;9.334;2023-08-21T09:30:59;8.15;;;7.10;;
60588;SDS011;46421;48.610;9.334;2023-08-21T09:33:25;9.63;;;7.05;;
60588;SDS011;46421;48.610;9.334;2023-08-21T09:35:54;8.43;;;7.27;;
60588;SDS011;46421;48.610;9.334;2023-08-21T09:38:19;8.95;;;6.90;;
60588;SDS011;46421;48.610;9.334;2023-08-21T09:40:54;7.90;;;6.53;;
60588;SDS011;46421;48.610;9.334;2023-08-21T09:43:20;10.07;;;6.68;;
60588;SDS011;46421;48.610;9.334;2023-08-21T09:45:46;7.47;;;6.00;;
60588;SDS011;46421;48.610;9.334;2023-08-21T09:48:11;9.57;;;6.43;;
60588;SDS011;46421;48.610;9.334;2023-08-21T09:50:36;8.43;;;6.55;;
60588;SDS011;46421;48.610;9.334;2023-08-21T09:53:03;8.23;;;6.60;;
60588;SDS011;46421;48.610;9.334;2023-08-21T09:55:31;8.98;;;6.38;;
60588;SDS011;46421;48.610;9.334;2023-08-21T09:58:00;6.70;;;5.93;;
60588;SDS011;46421;48.610;9.334;2023-08-21T10:00:29;7.43;;;6.30;;
60588;SDS011;46421;48.610;9.334;2023-08-21T10:02:54;7.28;;;6.57;;
60588;SDS011;46421;48.610;9.334;2023-08-21T10:05:24;7.10;;;6.38;;
60588;SDS011;46421;48.610;9.334;2023-08-21T10:07:50;7.43;;;6.72;;
60588;SDS011;46421;48.610;9.334;2023-08-21T10:10:15;9.38;;;6.53;;
60588;SDS011;46421;48.610;9.334;2023-08-21T10:12:41;10.20;;;6.13;;
60588;SDS011;46421;48.610;9.334;2023-08-21T10:15:06;7.57;;;6.53;;
60588;SDS011;46421;48.610;9.334;2023-08-21T10:17:32;7.82;;;6.00;;
60588;SDS011;46421;48.610;9.334;2023-08-21T10:20:02;8.05;;;7.20;;
60588;SDS011;46421;48.610;9.334;2023-08-21T10:22:38;9.32;;;6.43;;
60588;SDS011;46421;48.610;9.334;2023-08-21T10:25:13;7.35;;;5.85;;
60588;SDS011;46421;48.610;9.334;2023-08-21T10:27:38;7.13;;;6.25;;
60588;SDS011;46421;48.610;9.334;2023-08-21T10:30:14;9.15;;;6.55;;
60588;SDS011;46421;48.610;9.334;2023-08-21T10:32:47;7.43;;;6.20;;
60588;SDS011;46421;48.610;9.334;2023-08-21T10:35:17;8.68;;;6.13;;
60588;SDS011;46421;48.610;9.334;2023-08-21T10:40:27;6.93;;;6.22;;
60588;SDS011;46421;48.610;9.334;2023-08-21T10:42:53;6.88;;;5.95;;
60588;SDS011;46421;48.610;9.334;2023-08-21T10:45:19;7.40;;;6.55;;
60588;SDS011;46421;48.610;9.334;2023-08-21T10:47:44;7.90;;;5.80;;
60588;SDS011;46421;48.610;9.334;2023-08-21T10:50:12;7.55;;;6.82;;
60588;SDS011;46421;48.610;9.334;2023-08-21T10:52:38;7.15;;;6.28;;
60588;SDS011;46421;48.610;9.334;2023-08-21T10:55:05;8.73;;;6.10;;
60588;SDS011;46421;48.610;9.334;2023-08-21T10:57:31;7.65;;;6.20;;
60588;SDS011;46421;48.610;9.334;2023-08-21T11:02:22;7.70;;;6.27;;
60588;SDS011;46421;48.610;9.334;2023-08-21T11:04:48;8.88;;;7.03;;
60588;SDS011;46421;48.610;9.334;2023-08-21T11:07:14;7.38;;;6.50;;
60588;SDS011;46421;48.610;9.334;2023-08-21T11:09:39;7.05;;;5.95;;
60588;SDS011;46421;48.610;9.334;2023-08-21T11:12:06;6.82;;;6.13;;
60588;SDS011;46421;48.610;9.334;2023-08-21T11:14:31;9.80;;;6.40;;
60588;SDS011;46421;48.610;9.334;2023-08-21T11:16:56;8.80;;;6.93;;
60588;SDS011;46421;48.610;9.334;2023-08-21T11:19:24;7.53;;;6.72;;
60588;SDS011;46421;48.610;9.334;2023-08-21T11:21:52;8.20;;;6.80;;
60588;SDS011;46421;48.610;9.334;2023-08-21T11:24:17;7.75;;;6.95;;
60588;SDS011;46421;48.610;9.334;2023-08-21T11:26:42;9.23;;;7.27;;
60588;SDS011;46421;48.610;9.334;2023-08-21T11:29:08;7.47;;;6.45;;
60588;SDS011;46421;48.610;9.334;2023-08-21T11:31:33;8.30;;;6.60;;
60588;SDS011;46421;48.610;9.334;2023-08-21T11:33:58;8.60;;;6.97;;
60588;SDS011;46421;48.610;9.334;2023-08-21T11:36:23;10.00;;;6.57;;
60588;SDS011;46421;48.610;9.334;2023-08-21T11:38:58;9.20;;;6.13;;
60588;SDS011;46421;48.610;9.334;2023-08-21T11:41:25;8.35;;;7.22;;
60588;SDS011;46421;48.610;9.334;2023-08-21T11:43:50;8.15;;;7.35;;
60588;SDS011;46421;48.610;9.334;2023-08-21T11:46:16;7.72;;;6.70;;
60588;SDS011;46421;48.610;9.334;2023-08-21T11:48:42;8.13;;;7.20;;
60588;SDS011;46421;48.610;9.334;2023-08-21T11:51:08;8.55;;;6.78;;
60588;SDS011;46421;48.610;9.334;2023-08-21T11:53:35;8.38;;;5.88;;
60588;SDS011;46421;48.610;9.334;2023-08-21T11:56:00;7.88;;;6.68;;
60588;SDS011;46421;48.610;9.334;2023-08-21T11:58:26;8.73;;;7.20;;
60588;SDS011;46421;48.610;9.334;2023-08-21T12:00:51;7.55;;;6.85;;
60588;SDS011;46421;48.610;9.334;2023-08-21T12:03:17;8.88;;;8.07;;
60588;SDS011;46421;48.610;9.334;2023-08-21T12:05:43;7.90;;;6.85;;
60588;SDS011;46421;48.610;9.334;2023-08-21T12:08:09;8.23;;;7.40;;
60588;SDS011;46421;48.610;9.334;2023-08-21T12:10:34;8.68;;;6.55;;
60588;SDS011;46421;48.610;9.334;2023-08-21T12:12:59;7.47;;;6.30;;
60588;SDS011;46421;48.610;9.334;2023-08-21T12:15:25;10.37;;;7.70;;
60588;SDS011;46421;48.610;9.334;2023-08-21T12:17:50;8.43;;;7.67;;
60588;SDS011;46421;48.610;9.334;2023-08-21T12:20:15;8.17;;;7.03;;
60588;SDS011;46421;48.610;9.334;2023-08-21T12:22:40;7.13;;;6.10;;
60588;SDS011;46421;48.610;9.334;2023-08-21T12:25:07;8.18;;;7.35;;
60588;SDS011;46421;48.610;9.334;2023-08-21T12:27:33;7.68;;;6.88;;
60588;SDS011;46421;48.610;9.334;2023-08-21T12:29:58;7.93;;;7.13;;
60588;SDS011;46421;48.610;9.334;2023-08-21T12:32:24;7.65;;;6.47;;
60588;SDS011;46421;48.610;9.334;2023-08-21T12:34:49;8.60;;;6.33;;
60588;SDS011;46421;48.610;9.334;2023-08-21T12:37:14;7.53;;;6.30;;
60588;SDS011;46421;48.610;9.334;2023-08-21T12:39:39;7.43;;;6.73;;
60588;SDS011;46421;48.610;9.334;2023-08-21T12:42:05;10.20;;;7.27;;
60588;SDS011;46421;48.610;9.334;2023-08-21T12:44:30;10.45;;;7.30;;
60588;SDS011;46421;48.610;9.334;2023-08-21T12:46:55;8.20;;;7.23;;
60588;SDS011;46421;48.610;9.334;2023-08-21T12:49:20;8.30;;;6.87;;
60588;SDS011;46421;48.610;9.334;2023-08-21T12:51:46;8.77;;;6.57;;
60588;SDS011;46421;48.610;9.334;2023-08-21T12:54:11;9.40;;;7.20;;
60588;SDS011;46421;48.610;9.334;2023-08-21T12:56:36;10.47;;;6.27;;
60588;SDS011;46421;48.610;9.334;2023-08-21T12:59:01;8.23;;;7.43;;
60588;SDS011;46421;48.610;9.334;2023-08-21T13:01:28;9.13;;;7.40;;
60588;SDS011;46421;48.610;9.334;2023-08-21T13:03:53;8.25;;;7.43;;
60588;SDS011;46421;48.610;9.334;2023-08-21T13:06:18;8.53;;;7.03;;
60588;SDS011;46421;48.610;9.334;2023-08-21T13:08:43;7.50;;;6.80;;
60588;SDS011;46421;48.610;9.334;2023-08-21T13:11:09;8.60;;;7.07;;
60588;SDS011;46421;48.610;9.334;2023-08-21T13:13:35;8.45;;;7.28;;
60588;SDS011;46421;48.610;9.334;2023-08-21T13:16:00;10.02;;;9.02;;
60588;SDS011;46421;48.610;9.334;2023-08-21T13:18:26;9.07;;;8.23;;
60588;SDS011;46421;48.610;9.334;2023-08-21T13:20:51;7.45;;;6.75;;
60588;SDS011;46421;48.610;9.334;2023-08-21T13:23:16;9.00;;;8.10;;
60588;SDS011;46421;48.610;9.334;2023-08-21T13:25:41;9.63;;;7.95;;
60588;SDS011;46421;48.610;9.334;2023-08-21T13:28:07;8.77;;;7.97;;
60588;SDS011;46421;48.610;9.334;2023-08-21T13:30:32;8.13;;;6.77;;
60588;SDS011;46421;48.610;9.334;2023-08-21T13:32:57;9.13;;;6.97;;
60588;SDS011;46421;48.610;9.334;2023-08-21T13:35:23;9.75;;;7.85;;
60588;SDS011;46421;48.610;9.334;2023-08-21T13:37:49;9.20;;;7.25;;
60588;SDS011;46421;48.610;9.334;2023-08-21T13:40:14;9.40;;;8.32;;
60588;SDS011;46421;48.610;9.334;2023-08-21T13:42:42;9.15;;;7.53;;
60588;SDS011;46421;48.610;9.334;2023-08-21T13:45:08;7.75;;;7.03;;
60588;SDS011;46421;48.610;9.334;2023-08-21T13:47:34;7.22;;;6.00;;
60588;SDS011;46421;48.610;9.334;2023-08-21T13:50:00;9.02;;;8.07;;
60588;SDS011;46421;48.610;9.334;2023-08-21T13:52:25;8.98;;;8.02;;
60588;SDS011;46421;48.610;9.334;2023-08-21T13:54:50;8.57;;;7.27;;
60588;SDS011;46421;48.610;9.334;2023-08-21T13:57:16;7.37;;;6.60;;
60588;SDS011;46421;48.610;9.334;2023-08-21T13:59:41;11.63;;;6.83;;
60588;SDS011;46421;48.610;9.334;2023-08-21T14:02:06;8.47;;;6.83;;
60588;SDS011;46421;48.610;9.334;2023-08-21T14:04:32;7.93;;;6.90;;
60588;SDS011;46421;48.610;9.334;2023-08-21T14:06:57;7.78;;;6.00;;
60588;SDS011;46421;48.610;9.334;2023-08-21T14:09:22;7.40;;;5.80;;
60588;SDS011;46421;48.610;9.334;2023-08-21T14:11:47;7.80;;;5.53;;
60588;SDS011;46421;48.610;9.334;2023-08-21T14:14:13;7.70;;;5.75;;
60588;SDS011;46421;48.610;9.334;2023-08-21T14:16:38;9.33;;;5.67;;
60588;SDS011;46421;48.610;9.334;2023-08-21T14:19:03;6.77;;;5.67;;
60588;SDS011;46421;48.610;9.334;2023-08-21T14:21:28;8.23;;;5.43;;
60588;SDS011;46421;48.610;9.334;2023-08-21T14:23:53;7.93;;;5.87;;
60588;SDS011;46421;48.610;9.334;2023-08-21T14:26:19;7.75;;;5.40;;
60588;SDS011;46421;48.610;9.334;2023-08-21T14:28:44;7.63;;;5.63;;
60588;SDS011;46421;48.610;9.334;2023-08-21T14:31:15;7.78;;;5.43;;
60588;SDS011;46421;48.610;9.334;2023-08-21T14:33:40;7.17;;;4.67;;
60588;SDS011;46421;48.610;9.334;2023-08-21T14:36:05;6.90;;;5.37;;
60588;SDS011;46421;48.610;9.334;2023-08-21T14:38:30;7.32;;;5.57;;
60588;SDS011;46421;48.610;9.334;2023-08-21T14:40:56;6.33;;;4.93;;
60588;SDS011;46421;48.610;9.334;2023-08-21T14:43:21;7.63;;;5.13;;
60588;SDS011;46421;48.610;9.334;2023-08-21T14:45:47;6.53;;;4.32;;
60588;SDS011;46421;48.610;9.334;2023-08-21T14:48:12;7.63;;;4.53;;
60588;SDS011;46421;48.610;9.334;2023-08-21T14:50:37;7.30;;;4.60;;
60588;SDS011;46421;48.610;9.334;2023-08-21T14:53:02;6.87;;;4.70;;
60588;SDS011;46421;48.610;9.334;2023-08-21T14:55:28;7.53;;;4.68;;
60588;SDS011;46421;48.610;9.334;2023-08-21T14:57:53;8.03;;;4.97;;
60588;SDS011;46421;48.610;9.334;2023-08-21T15:00:18;7.27;;;5.03;;
60588;SDS011;46421;48.610;9.334;2023-08-21T15:05:08;6.40;;;4.18;;